PWSweather.com
Personal Weather Stations
Station Observations
WESTON01
WestonSuperMareGB BS22 8RT

WestonSuperMareGB BS22 8RT

Lat: 51.351508, Lon: -2.933373

Elevation: 15

Station Type: Fine Offset WH1080

http://www.westonweather.co.uk

High Low Average
Temperature 58.4°F14.7°C 41.3°F5.2°C 51.0°F10.6°C
Dew Point 46.9°F8.3°C 38.1°F3.4°C 41.5°F5.3°C
Winds 12.8 mph 20.6 kmh Calm Calm 7.0 mph SSW11.3 kmh SSW
Wind Gusts 24.7 mph39.8 kmh -- 11.0 mph17.7 kmh
Humidity 91% 51% 71%
Pressure 29.95 in1014.2 mb 29.77 in1008.1 mb -
Precipitation 0.04 in1.0 mm - -
Hour Temp Dew Point Humidity Winds Wind Gusts Pressure Precip Precip Rate Daily Precip Total
12:00 AM 48.3°F9.1°C 45.2°F7.3°C 89% 4.6 mph SW7.4 kmh SW 7.7 mph12.4 kmh 29.77 in1008.1 mb 0.00 in0.0 mm 0.00 in0.0 mm 0.00 in0.0 mm
12:05 AM 48.3°F9.1°C 45.2°F7.3°C 89% 4.4 mph SW7.1 kmh SW 7.4 mph11.9 kmh 29.77 in1008.1 mb 0.00 in0.0 mm 0.00 in0.0 mm 0.00 in0.0 mm
12:10 AM 48.3°F9.1°C 45.2°F7.3°C 89% 3.7 mph WSW6.0 kmh WSW 7.1 mph11.4 kmh 29.77 in1008.1 mb 0.00 in0.0 mm 0.00 in0.0 mm 0.00 in0.0 mm
12:15 AM 48.3°F9.1°C 45.2°F7.3°C 89% 3.1 mph SW5.0 kmh SW 7.1 mph11.4 kmh 29.77 in1008.1 mb 0.00 in0.0 mm 0.00 in0.0 mm 0.00 in0.0 mm
12:20 AM 48.1°F8.9°C 45.0°F7.2°C 89% 2.5 mph SSW4.0 kmh SSW 5.7 mph9.2 kmh 29.77 in1008.1 mb 0.00 in0.0 mm 0.00 in0.0 mm 0.00 in0.0 mm
12:25 AM 48.1°F8.9°C 45.0°F7.2°C 89% 2.5 mph SSW4.0 kmh SSW 4.2 mph6.8 kmh 29.77 in1008.1 mb 0.00 in0.0 mm 0.00 in0.0 mm 0.00 in0.0 mm
12:30 AM 48.1°F8.9°C 45.0°F7.2°C 89% 3.0 mph SSW4.8 kmh SSW 4.2 mph6.8 kmh 29.77 in1008.1 mb 0.00 in0.0 mm 0.00 in0.0 mm 0.00 in0.0 mm
12:35 AM 48.1°F8.9°C 45.0°F7.2°C 89% 3.0 mph SW4.8 kmh SW 5.7 mph9.2 kmh 29.77 in1008.1 mb 0.00 in0.0 mm 0.00 in0.0 mm 0.00 in0.0 mm
12:40 AM 47.9°F8.8°C 44.5°F6.9°C 88% 3.8 mph SW6.1 kmh SW 7.7 mph12.4 kmh 29.77 in1008.1 mb 0.00 in0.0 mm 0.00 in0.0 mm 0.00 in0.0 mm
12:45 AM 47.8°F8.8°C 44.4°F6.9°C 88% 4.0 mph SW6.4 kmh SW 7.7 mph12.4 kmh 29.77 in1008.1 mb 0.00 in0.0 mm 0.00 in0.0 mm 0.00 in0.0 mm
12:50 AM 47.6°F8.7°C 44.2°F6.8°C 88% 4.1 mph SW6.6 kmh SW 6.2 mph10.0 kmh 29.77 in1008.1 mb 0.00 in0.0 mm 0.00 in0.0 mm 0.00 in0.0 mm
12:55 AM 47.6°F8.7°C 44.2°F6.8°C 88% 4.0 mph SW6.4 kmh SW 6.2 mph10.0 kmh 29.77 in1008.1 mb 0.00 in0.0 mm 0.00 in0.0 mm 0.00 in0.0 mm
01:00 AM 47.4°F8.6°C 43.7°F6.5°C 87% 2.1 mph SW3.4 kmh SW 5.4 mph8.7 kmh 29.77 in1008.1 mb 0.00 in0.0 mm 0.00 in0.0 mm 0.00 in0.0 mm
01:05 AM 47.4°F8.6°C 44.0°F6.7°C 88% 3.1 mph SW5.0 kmh SW 5.4 mph8.7 kmh 29.77 in1008.1 mb 0.00 in0.0 mm 0.00 in0.0 mm 0.00 in0.0 mm
01:10 AM 47.2°F8.4°C 43.8°F6.6°C 88% 3.6 mph SW5.8 kmh SW 5.4 mph8.7 kmh 29.77 in1008.1 mb 0.00 in0.0 mm 0.00 in0.0 mm 0.00 in0.0 mm
01:15 AM 47.2°F8.4°C 43.8°F6.6°C 88% 3.1 mph SW5.0 kmh SW 5.4 mph8.7 kmh 29.77 in1008.1 mb 0.00 in0.0 mm 0.00 in0.0 mm 0.00 in0.0 mm
01:20 AM 47.2°F8.4°C 43.5°F6.4°C 87% 2.8 mph SW4.5 kmh SW 4.8 mph7.7 kmh 29.77 in1008.1 mb 0.00 in0.0 mm 0.00 in0.0 mm 0.00 in0.0 mm
01:25 AM 47.2°F8.4°C 43.5°F6.4°C 87% 3.3 mph WSW5.3 kmh WSW 5.4 mph8.7 kmh 29.77 in1008.1 mb 0.00 in0.0 mm 0.00 in0.0 mm 0.00 in0.0 mm
01:30 AM 47.2°F8.4°C 43.5°F6.4°C 87% 4.0 mph WSW6.4 kmh WSW 5.7 mph9.2 kmh 29.77 in1008.1 mb 0.00 in0.0 mm 0.00 in0.0 mm 0.00 in0.0 mm
01:35 AM 47.2°F8.4°C 43.5°F6.4°C 87% 3.7 mph WSW6.0 kmh WSW 5.7 mph9.2 kmh 29.77 in1008.1 mb 0.00 in0.0 mm 0.00 in0.0 mm 0.00 in0.0 mm
01:40 AM 47.0°F8.3°C 43.7°F6.5°C 88% 3.9 mph WSW6.3 kmh WSW 5.7 mph9.2 kmh 29.77 in1008.1 mb 0.00 in0.0 mm 0.00 in0.0 mm 0.00 in0.0 mm
01:45 AM 47.0°F8.3°C 43.7°F6.5°C 88% 3.7 mph WSW6.0 kmh WSW 5.4 mph8.7 kmh 29.77 in1008.1 mb 0.00 in0.0 mm 0.00 in0.0 mm 0.00 in0.0 mm
01:50 AM 47.0°F8.3°C 43.7°F6.5°C 88% 4.1 mph SSW6.6 kmh SSW 6.0 mph9.7 kmh 29.80 in1009.1 mb 0.00 in0.0 mm 0.00 in0.0 mm 0.00 in0.0 mm
01:55 AM 46.8°F8.2°C 43.5°F6.4°C 88% 4.0 mph SSW6.4 kmh SSW 6.5 mph10.5 kmh 29.80 in1009.1 mb 0.00 in0.0 mm 0.00 in0.0 mm 0.00 in0.0 mm
02:00 AM 46.8°F8.2°C 43.5°F6.4°C 88% 3.2 mph SW5.1 kmh SW 6.5 mph10.5 kmh 29.80 in1009.1 mb 0.00 in0.0 mm 0.00 in0.0 mm 0.00 in0.0 mm
02:05 AM 46.8°F8.2°C 43.5°F6.4°C 88% 2.8 mph SW4.5 kmh SW 4.2 mph6.8 kmh 29.80 in1009.1 mb 0.00 in0.0 mm 0.00 in0.0 mm 0.00 in0.0 mm
02:10 AM 46.8°F8.2°C 43.5°F6.4°C 88% 3.0 mph SW4.8 kmh SW 4.8 mph7.7 kmh 29.80 in1009.1 mb 0.00 in0.0 mm 0.00 in0.0 mm 0.00 in0.0 mm
02:15 AM 46.8°F8.2°C 43.5°F6.4°C 88% 4.1 mph SW6.6 kmh SW 5.4 mph8.7 kmh 29.80 in1009.1 mb 0.00 in0.0 mm 0.00 in0.0 mm 0.00 in0.0 mm
02:20 AM 46.8°F8.2°C 43.5°F6.4°C 88% 3.8 mph SW6.1 kmh SW 5.4 mph8.7 kmh 29.80 in1009.1 mb 0.00 in0.0 mm 0.00 in0.0 mm 0.00 in0.0 mm
02:25 AM 46.7°F8.2°C 43.3°F6.3°C 88% 2.7 mph S4.3 kmh S 4.2 mph6.8 kmh 29.80 in1009.1 mb 0.00 in0.0 mm 0.00 in0.0 mm 0.00 in0.0 mm
02:30 AM 46.7°F8.2°C 43.3°F6.3°C 88% 3.1 mph S5.0 kmh S 4.5 mph7.2 kmh 29.80 in1009.1 mb 0.00 in0.0 mm 0.00 in0.0 mm 0.00 in0.0 mm
02:35 AM 46.5°F8.1°C 42.8°F6.0°C 87% 3.0 mph SSW4.8 kmh SSW 4.5 mph7.2 kmh 29.80 in1009.1 mb 0.00 in0.0 mm 0.00 in0.0 mm 0.00 in0.0 mm
02:40 AM 46.3°F7.9°C 42.7°F5.9°C 87% 2.5 mph SSW4.0 kmh SSW 4.5 mph7.2 kmh 29.80 in1009.1 mb 0.00 in0.0 mm 0.00 in0.0 mm 0.00 in0.0 mm
02:45 AM 46.1°F7.8°C 42.5°F5.8°C 87% 2.5 mph SSW4.0 kmh SSW 4.5 mph7.2 kmh 29.80 in1009.1 mb 0.00 in0.0 mm 0.00 in0.0 mm 0.00 in0.0 mm
02:50 AM 46.0°F7.8°C 42.3°F5.7°C 87% 1.7 mph SSW2.7 kmh SSW 3.0 mph4.8 kmh 29.80 in1009.1 mb 0.00 in0.0 mm 0.00 in0.0 mm 0.00 in0.0 mm
02:55 AM 45.8°F7.7°C 42.1°F5.6°C 87% 1.9 mph SSW3.1 kmh SSW 3.9 mph6.3 kmh 29.80 in1009.1 mb 0.00 in0.0 mm 0.00 in0.0 mm 0.00 in0.0 mm
03:00 AM 45.8°F7.7°C 42.1°F5.6°C 87% 2.2 mph SSW3.5 kmh SSW 3.9 mph6.3 kmh 29.80 in1009.1 mb 0.00 in0.0 mm 0.00 in0.0 mm 0.00 in0.0 mm
03:05 AM 45.8°F7.7°C 42.1°F5.6°C 87% 1.4 mph SSW2.3 kmh SSW 3.6 mph5.8 kmh 29.80 in1009.1 mb 0.00 in0.0 mm 0.00 in0.0 mm 0.00 in0.0 mm
03:10 AM 45.6°F7.6°C 41.9°F5.5°C 87% 1.6 mph SSW2.6 kmh SSW 3.3 mph5.3 kmh 29.80 in1009.1 mb 0.00 in0.0 mm 0.00 in0.0 mm 0.00 in0.0 mm
03:15 AM 45.6°F7.6°C 41.9°F5.5°C 87% 2.2 mph S3.5 kmh S 3.6 mph5.8 kmh 29.80 in1009.1 mb 0.00 in0.0 mm 0.00 in0.0 mm 0.00 in0.0 mm
03:20 AM 45.4°F7.4°C 41.8°F5.4°C 87% 2.2 mph S3.5 kmh S 4.8 mph7.7 kmh 29.80 in1009.1 mb 0.00 in0.0 mm 0.00 in0.0 mm 0.00 in0.0 mm
03:25 AM 45.2°F7.3°C 41.6°F5.3°C 87% 1.9 mph S3.1 kmh S 4.8 mph7.7 kmh 29.80 in1009.1 mb 0.00 in0.0 mm 0.00 in0.0 mm 0.00 in0.0 mm
03:30 AM 45.2°F7.3°C 41.6°F5.3°C 87% 1.7 mph S2.7 kmh S 4.8 mph7.7 kmh 29.80 in1009.1 mb 0.00 in0.0 mm 0.00 in0.0 mm 0.00 in0.0 mm
03:35 AM 45.2°F7.3°C 41.6°F5.3°C 87% 2.0 mph S3.2 kmh S 4.8 mph7.7 kmh 29.80 in1009.1 mb 0.00 in0.0 mm 0.00 in0.0 mm 0.00 in0.0 mm
03:40 AM 45.2°F7.3°C 41.6°F5.3°C 87% 3.2 mph S5.1 kmh S 4.8 mph7.7 kmh 29.80 in1009.1 mb 0.00 in0.0 mm 0.00 in0.0 mm 0.00 in0.0 mm
03:45 AM 45.2°F7.3°C 41.6°F5.3°C 87% 3.3 mph S5.3 kmh S 4.8 mph7.7 kmh 29.80 in1009.1 mb 0.00 in0.0 mm 0.00 in0.0 mm 0.00 in0.0 mm
03:50 AM 45.0°F7.2°C 41.7°F5.4°C 88% 2.3 mph S3.7 kmh S 4.5 mph7.2 kmh 29.83 in1010.2 mb 0.00 in0.0 mm 0.00 in0.0 mm 0.00 in0.0 mm
03:55 AM 44.9°F7.2°C 41.2°F5.1°C 87% 2.0 mph S3.2 kmh S 4.8 mph7.7 kmh 29.83 in1010.2 mb 0.00 in0.0 mm 0.00 in0.0 mm 0.00 in0.0 mm
04:00 AM 44.9°F7.2°C 41.2°F5.1°C 87% 2.1 mph S3.4 kmh S 4.8 mph7.7 kmh 29.83 in1010.2 mb 0.00 in0.0 mm 0.00 in0.0 mm 0.00 in0.0 mm
04:05 AM 44.7°F7.1°C 41.1°F5.1°C 87% 1.7 mph S2.7 kmh S 3.0 mph4.8 kmh 29.83 in1010.2 mb 0.00 in0.0 mm 0.00 in0.0 mm 0.00 in0.0 mm
04:10 AM 44.3°F6.8°C 40.7°F4.8°C 87% 1.6 mph S2.6 kmh S 2.7 mph4.3 kmh 29.83 in1010.2 mb 0.00 in0.0 mm 0.00 in0.0 mm 0.00 in0.0 mm
04:15 AM 44.0°F6.7°C 40.3°F4.6°C 87% 0.8 mph S1.3 kmh S 2.7 mph4.3 kmh 29.83 in1010.2 mb 0.00 in0.0 mm 0.00 in0.0 mm 0.00 in0.0 mm
04:20 AM 43.8°F6.6°C 40.2°F4.6°C 87% 0.2 mph SW0.3 kmh SW 2.7 mph4.3 kmh 29.83 in1010.2 mb 0.00 in0.0 mm 0.00 in0.0 mm 0.00 in0.0 mm
04:25 AM 43.4°F6.3°C 39.8°F4.3°C 87% Calm Calm -- 29.83 in1010.2 mb 0.00 in0.0 mm 0.00 in0.0 mm 0.00 in0.0 mm
04:35 AM 42.9°F6.1°C 39.3°F4.1°C 87% 1.9 mph SSW3.1 kmh SSW 4.0 mph6.4 kmh 29.83 in1010.2 mb 0.00 in0.0 mm 0.00 in0.0 mm 0.00 in0.0 mm
04:40 AM 42.7°F5.9°C 39.1°F3.9°C 87% 1.8 mph S2.9 kmh S 4.0 mph6.4 kmh 29.83 in1010.2 mb 0.00 in0.0 mm 0.00 in0.0 mm 0.00 in0.0 mm
04:45 AM 42.5°F5.8°C 39.2°F4.0°C 88% 1.0 mph SSE1.6 kmh SSE 3.9 mph6.3 kmh 29.83 in1010.2 mb 0.00 in0.0 mm 0.00 in0.0 mm 0.00 in0.0 mm
04:50 AM 42.3°F5.7°C 39.0°F3.9°C 88% 0.4 mph SE0.6 kmh SE 3.3 mph5.3 kmh 29.83 in1010.2 mb 0.00 in0.0 mm 0.00 in0.0 mm 0.00 in0.0 mm
04:55 AM 42.2°F5.7°C 38.9°F3.8°C 88% 0.1 mph SE0.2 kmh SE 1.2 mph1.9 kmh 29.83 in1010.2 mb 0.00 in0.0 mm 0.00 in0.0 mm 0.00 in0.0 mm
05:00 AM 41.8°F5.4°C 38.5°F3.6°C 88% 0.2 mph S0.3 kmh S 1.5 mph2.4 kmh 29.83 in1010.2 mb 0.00 in0.0 mm 0.00 in0.0 mm 0.00 in0.0 mm
05:05 AM 41.8°F5.4°C 38.5°F3.6°C 88% 0.6 mph S1.0 kmh S 1.5 mph2.4 kmh 29.83 in1010.2 mb 0.00 in0.0 mm 0.00 in0.0 mm 0.00 in0.0 mm
05:10 AM 41.6°F5.3°C 38.3°F3.5°C 88% 0.5 mph S0.8 kmh S 1.5 mph2.4 kmh 29.83 in1010.2 mb 0.00 in0.0 mm 0.00 in0.0 mm 0.00 in0.0 mm
05:15 AM 41.6°F5.3°C 38.3°F3.5°C 88% Calm Calm -- 29.83 in1010.2 mb 0.00 in0.0 mm 0.00 in0.0 mm 0.00 in0.0 mm
05:20 AM 41.3°F5.2°C 38.3°F3.5°C 89% 0.2 mph S0.3 kmh S 3.0 mph4.8 kmh 29.83 in1010.2 mb 0.00 in0.0 mm 0.00 in0.0 mm 0.00 in0.0 mm
05:25 AM 41.3°F5.2°C 38.3°F3.5°C 89% 1.6 mph S2.6 kmh S 5.4 mph8.7 kmh 29.83 in1010.2 mb 0.00 in0.0 mm 0.00 in0.0 mm 0.00 in0.0 mm
05:30 AM 41.3°F5.2°C 38.3°F3.5°C 89% 2.6 mph S4.2 kmh S 5.4 mph8.7 kmh 29.83 in1010.2 mb 0.00 in0.0 mm 0.00 in0.0 mm 0.00 in0.0 mm
05:35 AM 41.3°F5.2°C 38.3°F3.5°C 89% 2.0 mph SSW3.2 kmh SSW 4.5 mph7.2 kmh 29.83 in1010.2 mb 0.00 in0.0 mm 0.00 in0.0 mm 0.00 in0.0 mm
05:40 AM 41.3°F5.2°C 38.6°F3.7°C 90% 1.7 mph SW2.7 kmh SW 3.6 mph5.8 kmh 29.83 in1010.2 mb 0.00 in0.0 mm 0.00 in0.0 mm 0.00 in0.0 mm
05:45 AM 41.5°F5.3°C 38.7°F3.7°C 90% 1.5 mph SW2.4 kmh SW 3.9 mph6.3 kmh 29.83 in1010.2 mb 0.00 in0.0 mm 0.00 in0.0 mm 0.00 in0.0 mm
05:50 AM 41.5°F5.3°C 38.7°F3.7°C 90% 1.5 mph SW2.4 kmh SW 3.9 mph6.3 kmh 29.83 in1010.2 mb 0.00 in0.0 mm 0.00 in0.0 mm 0.00 in0.0 mm
05:55 AM 41.6°F5.3°C 38.9°F3.8°C 90% 1.4 mph SW2.3 kmh SW 3.9 mph6.3 kmh 29.83 in1010.2 mb 0.00 in0.0 mm 0.00 in0.0 mm 0.00 in0.0 mm
06:00 AM 41.8°F5.4°C 39.1°F3.9°C 90% 1.5 mph SSW2.4 kmh SSW 5.1 mph8.2 kmh 29.83 in1010.2 mb 0.00 in0.0 mm 0.00 in0.0 mm 0.00 in0.0 mm
06:05 AM 42.0°F5.6°C 39.3°F4.1°C 90% 2.9 mph SSW4.7 kmh SSW 6.2 mph10.0 kmh 29.83 in1010.2 mb 0.00 in0.0 mm 0.00 in0.0 mm 0.00 in0.0 mm
06:10 AM 42.2°F5.7°C 39.4°F4.1°C 90% 2.5 mph SSW4.0 kmh SSW 6.2 mph10.0 kmh 29.83 in1010.2 mb 0.00 in0.0 mm 0.00 in0.0 mm 0.00 in0.0 mm
06:15 AM 42.3°F5.7°C 39.9°F4.4°C 91% 1.9 mph SSW3.1 kmh SSW 3.3 mph5.3 kmh 29.83 in1010.2 mb 0.00 in0.0 mm 0.00 in0.0 mm 0.00 in0.0 mm
06:20 AM 42.7°F5.9°C 40.3°F4.6°C 91% 1.9 mph SSW3.1 kmh SSW 3.3 mph5.3 kmh 29.86 in1011.2 mb 0.00 in0.0 mm 0.00 in0.0 mm 0.00 in0.0 mm
06:25 AM 43.1°F6.2°C 40.6°F4.8°C 91% 2.5 mph SSW4.0 kmh SSW 5.1 mph8.2 kmh 29.86 in1011.2 mb 0.00 in0.0 mm 0.00 in0.0 mm 0.00 in0.0 mm
06:30 AM 43.6°F6.4°C 41.2°F5.1°C 91% 3.7 mph SSW6.0 kmh SSW 5.7 mph9.2 kmh 29.86 in1011.2 mb 0.00 in0.0 mm 0.00 in0.0 mm 0.00 in0.0 mm
06:35 AM 43.8°F6.6°C 41.3°F5.2°C 91% 4.6 mph S7.4 kmh S 7.1 mph11.4 kmh 29.86 in1011.2 mb 0.00 in0.0 mm 0.00 in0.0 mm 0.00 in0.0 mm
06:40 AM 44.5°F6.9°C 42.0°F5.6°C 91% 5.4 mph SSW8.7 kmh SSW 7.1 mph11.4 kmh 29.86 in1011.2 mb 0.00 in0.0 mm 0.00 in0.0 mm 0.00 in0.0 mm
06:45 AM 44.7°F7.1°C 42.2°F5.7°C 91% 4.6 mph SSW7.4 kmh SSW 5.4 mph8.7 kmh 29.86 in1011.2 mb 0.00 in0.0 mm 0.00 in0.0 mm 0.00 in0.0 mm
06:50 AM 44.9°F7.2°C 42.1°F5.6°C 90% 4.4 mph SSW7.1 kmh SSW 5.4 mph8.7 kmh 29.86 in1011.2 mb 0.00 in0.0 mm 0.00 in0.0 mm 0.00 in0.0 mm
06:55 AM 45.0°F7.2°C 42.3°F5.7°C 90% 4.7 mph SW7.6 kmh SW 7.4 mph11.9 kmh 29.86 in1011.2 mb 0.00 in0.0 mm 0.00 in0.0 mm 0.00 in0.0 mm
07:00 AM 45.4°F7.4°C 42.6°F5.9°C 90% 5.3 mph SW8.5 kmh SW 7.4 mph11.9 kmh 29.86 in1011.2 mb 0.00 in0.0 mm 0.00 in0.0 mm 0.00 in0.0 mm
07:05 AM 46.0°F7.8°C 43.2°F6.2°C 90% 6.0 mph SW9.7 kmh SW 8.6 mph13.8 kmh 29.89 in1012.2 mb 0.00 in0.0 mm 0.00 in0.0 mm 0.00 in0.0 mm
07:10 AM 46.1°F7.8°C 43.4°F6.3°C 90% 6.0 mph SSW9.7 kmh SSW 8.6 mph13.8 kmh 29.89 in1012.2 mb 0.00 in0.0 mm 0.00 in0.0 mm 0.00 in0.0 mm
07:15 AM 46.5°F8.1°C 43.7°F6.5°C 90% 6.4 mph SW10.3 kmh SW 8.6 mph13.8 kmh 29.89 in1012.2 mb 0.00 in0.0 mm 0.00 in0.0 mm 0.00 in0.0 mm
07:20 AM 46.7°F8.2°C 43.6°F6.4°C 89% 6.3 mph SW10.1 kmh SW 8.6 mph13.8 kmh 29.89 in1012.2 mb 0.00 in0.0 mm 0.00 in0.0 mm 0.00 in0.0 mm
07:25 AM 46.7°F8.2°C 43.6°F6.4°C 89% 5.1 mph SW8.2 kmh SW 8.6 mph13.8 kmh 29.89 in1012.2 mb 0.00 in0.0 mm 0.00 in0.0 mm 0.00 in0.0 mm
07:30 AM 47.0°F8.3°C 44.0°F6.7°C 89% 6.5 mph SSW10.5 kmh SSW 12.5 mph20.1 kmh 29.89 in1012.2 mb 0.00 in0.0 mm 0.00 in0.0 mm 0.00 in0.0 mm
07:35 AM 47.2°F8.4°C 43.8°F6.6°C 88% 7.5 mph S12.1 kmh S 12.5 mph20.1 kmh 29.89 in1012.2 mb 0.00 in0.0 mm 0.00 in0.0 mm 0.00 in0.0 mm
07:40 AM 47.4°F8.6°C 44.0°F6.7°C 88% 6.3 mph S10.1 kmh S 10.1 mph16.3 kmh 29.89 in1012.2 mb 0.00 in0.0 mm 0.00 in0.0 mm 0.00 in0.0 mm
07:45 AM 47.6°F8.7°C 44.2°F6.8°C 88% 5.6 mph SSW9.0 kmh SSW 8.3 mph13.4 kmh 29.89 in1012.2 mb 0.00 in0.0 mm 0.00 in0.0 mm 0.00 in0.0 mm
07:50 AM 48.3°F9.1°C 44.9°F7.2°C 88% 4.8 mph SW7.7 kmh SW 8.3 mph13.4 kmh 29.89 in1012.2 mb 0.00 in0.0 mm 0.00 in0.0 mm 0.00 in0.0 mm
07:55 AM 48.7°F9.3°C 45.3°F7.4°C 88% 4.7 mph SW7.6 kmh SW 8.3 mph13.4 kmh 29.89 in1012.2 mb 0.00 in0.0 mm 0.00 in0.0 mm 0.00 in0.0 mm
08:00 AM 49.0°F9.4°C 45.3°F7.4°C 87% 5.2 mph SW8.4 kmh SW 10.4 mph16.7 kmh 29.89 in1012.2 mb 0.00 in0.0 mm 0.00 in0.0 mm 0.00 in0.0 mm
08:05 AM 49.5°F9.7°C 45.5°F7.5°C 86% 7.0 mph SW11.3 kmh SW 11.6 mph18.7 kmh 29.89 in1012.2 mb 0.00 in0.0 mm 0.00 in0.0 mm 0.00 in0.0 mm
08:10 AM 49.7°F9.8°C 45.7°F7.6°C 86% 7.6 mph SSW12.2 kmh SSW 11.6 mph18.7 kmh 29.89 in1012.2 mb 0.00 in0.0 mm 0.00 in0.0 mm 0.00 in0.0 mm
08:15 AM 50.1°F10.1°C 46.1°F7.8°C 86% 8.2 mph SSW13.2 kmh SSW 13.1 mph21.1 kmh 29.89 in1012.2 mb 0.00 in0.0 mm 0.00 in0.0 mm 0.00 in0.0 mm
08:20 AM 50.3°F10.2°C 45.9°F7.7°C 85% 9.7 mph SW15.6 kmh SW 13.7 mph22.0 kmh 29.92 in1013.2 mb 0.00 in0.0 mm 0.00 in0.0 mm 0.00 in0.0 mm
08:25 AM 50.6°F10.3°C 46.0°F7.8°C 84% 9.4 mph SW15.1 kmh SW 13.7 mph22.0 kmh 29.92 in1013.2 mb 0.00 in0.0 mm 0.00 in0.0 mm 0.00 in0.0 mm
08:30 AM 51.0°F10.6°C 46.0°F7.8°C 83% 8.4 mph SSW13.5 kmh SSW 12.8 mph20.6 kmh 29.92 in1013.2 mb 0.00 in0.0 mm 0.00 in0.0 mm 0.00 in0.0 mm
08:35 AM 51.5°F10.8°C 46.5°F8.1°C 83% 8.2 mph SW13.2 kmh SW 12.8 mph20.6 kmh 29.92 in1013.2 mb 0.00 in0.0 mm 0.00 in0.0 mm 0.00 in0.0 mm
08:40 AM 51.9°F11.1°C 46.9°F8.3°C 83% 7.4 mph SW11.9 kmh SW 10.4 mph16.7 kmh 29.92 in1013.2 mb 0.00 in0.0 mm 0.00 in0.0 mm 0.00 in0.0 mm
08:45 AM 52.3°F11.3°C 46.9°F8.3°C 82% 8.2 mph SW13.2 kmh SW 13.1 mph21.1 kmh 29.92 in1013.2 mb 0.04 in1.0 mm 0.48 in12.2 mm 0.04 in1.0 mm
08:50 AM 52.3°F11.3°C 46.9°F8.3°C 82% 9.9 mph SSW15.9 kmh SSW 14.0 mph22.5 kmh 29.92 in1013.2 mb 0.04 in1.0 mm 0.00 in0.0 mm 0.04 in1.0 mm
08:55 AM 52.4°F11.3°C 46.4°F8.0°C 80% 8.6 mph SSW13.8 kmh SSW 14.0 mph22.5 kmh 29.92 in1013.2 mb 0.04 in1.0 mm 0.00 in0.0 mm 0.04 in1.0 mm
09:00 AM 52.6°F11.4°C 46.3°F7.9°C 79% 8.5 mph SSW13.7 kmh SSW 10.7 mph17.2 kmh 29.92 in1013.2 mb 0.04 in1.0 mm 0.00 in0.0 mm 0.04 in1.0 mm
09:05 AM 52.4°F11.3°C 45.8°F7.7°C 78% 9.0 mph SSW14.5 kmh SSW 10.7 mph17.2 kmh 29.92 in1013.2 mb 0.04 in1.0 mm 0.00 in0.0 mm 0.04 in1.0 mm
09:10 AM 52.4°F11.3°C 45.8°F7.7°C 78% 7.8 mph SSW12.6 kmh SSW 9.8 mph15.8 kmh 29.92 in1013.2 mb 0.04 in1.0 mm 0.00 in0.0 mm 0.04 in1.0 mm
09:15 AM 52.3°F11.3°C 45.3°F7.4°C 77% 8.1 mph SSW13.0 kmh SSW 16.1 mph25.9 kmh 29.92 in1013.2 mb 0.04 in1.0 mm 0.00 in0.0 mm 0.04 in1.0 mm
09:20 AM 52.3°F11.3°C 45.3°F7.4°C 77% 9.6 mph S15.4 kmh S 16.7 mph26.9 kmh 29.95 in1014.2 mb 0.04 in1.0 mm 0.00 in0.0 mm 0.04 in1.0 mm
09:25 AM 52.3°F11.3°C 44.9°F7.2°C 76% 9.7 mph S15.6 kmh S 16.7 mph26.9 kmh 29.95 in1014.2 mb 0.04 in1.0 mm 0.00 in0.0 mm 0.04 in1.0 mm
09:30 AM 52.4°F11.3°C 44.7°F7.1°C 75% 7.4 mph SSW11.9 kmh SSW 13.1 mph21.1 kmh 29.95 in1014.2 mb 0.04 in1.0 mm 0.00 in0.0 mm 0.04 in1.0 mm
09:35 AM 52.8°F11.6°C 45.1°F7.3°C 75% 7.0 mph SSW11.3 kmh SSW 10.1 mph16.3 kmh 29.95 in1014.2 mb 0.04 in1.0 mm 0.00 in0.0 mm 0.04 in1.0 mm
09:40 AM 53.2°F11.8°C 45.4°F7.4°C 75% 6.5 mph SSW10.5 kmh SSW 13.4 mph21.6 kmh 29.95 in1014.2 mb 0.04 in1.0 mm 0.00 in0.0 mm 0.04 in1.0 mm
09:45 AM 53.5°F11.9°C 45.4°F7.4°C 74% 7.7 mph SSW12.4 kmh SSW 14.0 mph22.5 kmh 29.95 in1014.2 mb 0.00 in0.0 mm 0.00 in0.0 mm 0.04 in1.0 mm
09:50 AM 53.7°F12.1°C 45.2°F7.3°C 73% 9.4 mph S15.1 kmh S 16.1 mph25.9 kmh 29.95 in1014.2 mb 0.00 in0.0 mm 0.00 in0.0 mm 0.04 in1.0 mm
09:55 AM 53.7°F12.1°C 45.2°F7.3°C 73% 8.8 mph SSW14.2 kmh SSW 16.1 mph25.9 kmh 29.95 in1014.2 mb 0.00 in0.0 mm 0.00 in0.0 mm 0.04 in1.0 mm
10:00 AM 54.0°F12.2°C 45.6°F7.6°C 73% 7.0 mph SW11.3 kmh SW 10.7 mph17.2 kmh 29.95 in1014.2 mb 0.00 in0.0 mm 0.00 in0.0 mm 0.04 in1.0 mm
10:05 AM 54.4°F12.4°C 45.6°F7.6°C 72% 7.2 mph SSW11.6 kmh SSW 13.7 mph22.0 kmh 29.95 in1014.2 mb 0.00 in0.0 mm 0.00 in0.0 mm 0.04 in1.0 mm
10:10 AM 54.4°F12.4°C 45.6°F7.6°C 72% 6.9 mph S11.1 kmh S 13.7 mph22.0 kmh 29.95 in1014.2 mb 0.00 in0.0 mm 0.00 in0.0 mm 0.04 in1.0 mm
10:15 AM 54.2°F12.3°C 45.4°F7.4°C 72% 7.0 mph SSW11.3 kmh SSW 10.4 mph16.7 kmh 29.95 in1014.2 mb 0.00 in0.0 mm 0.00 in0.0 mm 0.04 in1.0 mm
10:20 AM 54.2°F12.3°C 45.4°F7.4°C 72% 6.5 mph SW10.5 kmh SW 11.6 mph18.7 kmh 29.95 in1014.2 mb 0.00 in0.0 mm 0.00 in0.0 mm 0.04 in1.0 mm
10:25 AM 54.2°F12.3°C 45.0°F7.2°C 71% 5.7 mph SW9.2 kmh SW 11.6 mph18.7 kmh 29.95 in1014.2 mb 0.00 in0.0 mm 0.00 in0.0 mm 0.04 in1.0 mm
10:30 AM 54.4°F12.4°C 44.8°F7.1°C 70% 6.5 mph SW10.5 kmh SW 11.3 mph18.2 kmh 29.95 in1014.2 mb 0.00 in0.0 mm 0.00 in0.0 mm 0.04 in1.0 mm
10:35 AM 54.6°F12.6°C 45.0°F7.2°C 70% 8.3 mph SSW13.4 kmh SSW 11.6 mph18.7 kmh 29.95 in1014.2 mb 0.00 in0.0 mm 0.00 in0.0 mm 0.04 in1.0 mm
10:40 AM 54.8°F12.7°C 45.2°F7.3°C 70% 7.4 mph SSW11.9 kmh SSW 11.6 mph18.7 kmh 29.95 in1014.2 mb 0.00 in0.0 mm 0.00 in0.0 mm 0.04 in1.0 mm
10:45 AM 54.8°F12.7°C 44.8°F7.1°C 69% 7.3 mph SW11.7 kmh SW 11.6 mph18.7 kmh 29.95 in1014.2 mb 0.00 in0.0 mm 0.00 in0.0 mm 0.04 in1.0 mm
10:50 AM 54.8°F12.7°C 44.4°F6.9°C 68% 6.9 mph SW11.1 kmh SW 11.6 mph18.7 kmh 29.95 in1014.2 mb 0.00 in0.0 mm 0.00 in0.0 mm 0.04 in1.0 mm
10:55 AM 54.8°F12.7°C 44.4°F6.9°C 68% 6.6 mph SSW10.6 kmh SSW 10.7 mph17.2 kmh 29.95 in1014.2 mb 0.00 in0.0 mm 0.00 in0.0 mm 0.04 in1.0 mm
11:00 AM 54.8°F12.7°C 44.4°F6.9°C 68% 6.7 mph SW10.8 kmh SW 10.4 mph16.7 kmh 29.95 in1014.2 mb 0.00 in0.0 mm 0.00 in0.0 mm 0.04 in1.0 mm
11:05 AM 54.6°F12.6°C 44.2°F6.8°C 68% 6.8 mph SW10.9 kmh SW 10.4 mph16.7 kmh 29.95 in1014.2 mb 0.00 in0.0 mm 0.00 in0.0 mm 0.04 in1.0 mm
11:10 AM 54.6°F12.6°C 43.8°F6.6°C 67% 6.6 mph SW10.6 kmh SW 7.7 mph12.4 kmh 29.95 in1014.2 mb 0.00 in0.0 mm 0.00 in0.0 mm 0.04 in1.0 mm
11:15 AM 55.0°F12.8°C 44.6°F7.0°C 68% 6.7 mph SW10.8 kmh SW 8.0 mph12.9 kmh 29.95 in1014.2 mb 0.00 in0.0 mm 0.00 in0.0 mm 0.04 in1.0 mm
11:20 AM 55.3°F12.9°C 44.1°F6.7°C 66% 6.1 mph SW9.8 kmh SW 8.3 mph13.4 kmh 29.95 in1014.2 mb 0.00 in0.0 mm 0.00 in0.0 mm 0.04 in1.0 mm
11:25 AM 55.5°F13.1°C 44.7°F7.1°C 67% 6.4 mph WSW10.3 kmh WSW 13.7 mph22.0 kmh 29.95 in1014.2 mb 0.00 in0.0 mm 0.00 in0.0 mm 0.04 in1.0 mm
11:30 AM 55.1°F12.8°C 44.4°F6.9°C 67% 7.9 mph SW12.7 kmh SW 13.7 mph22.0 kmh 29.95 in1014.2 mb 0.00 in0.0 mm 0.00 in0.0 mm 0.04 in1.0 mm
11:35 AM 55.0°F12.8°C 44.6°F7.0°C 68% 8.1 mph SSW13.0 kmh SSW 13.7 mph22.0 kmh 29.95 in1014.2 mb 0.00 in0.0 mm 0.00 in0.0 mm 0.04 in1.0 mm
11:40 AM 55.0°F12.8°C 44.6°F7.0°C 68% 8.3 mph SSW13.4 kmh SSW 10.7 mph17.2 kmh 29.95 in1014.2 mb 0.00 in0.0 mm 0.00 in0.0 mm 0.04 in1.0 mm
11:45 AM 55.1°F12.8°C 44.8°F7.1°C 68% 8.1 mph S13.0 kmh S 11.3 mph18.2 kmh 29.95 in1014.2 mb 0.00 in0.0 mm 0.00 in0.0 mm 0.04 in1.0 mm
11:50 AM 55.1°F12.8°C 44.4°F6.9°C 67% 7.5 mph S12.1 kmh S 11.3 mph18.2 kmh 29.95 in1014.2 mb 0.00 in0.0 mm 0.00 in0.0 mm 0.04 in1.0 mm
11:55 AM 55.1°F12.8°C 44.4°F6.9°C 67% 6.8 mph SW10.9 kmh SW 8.3 mph13.4 kmh 29.95 in1014.2 mb 0.00 in0.0 mm 0.00 in0.0 mm 0.04 in1.0 mm
12:00 PM 56.0°F13.3°C 44.8°F7.1°C 66% 8.0 mph SSW12.9 kmh SSW 13.4 mph21.6 kmh 29.95 in1014.2 mb 0.00 in0.0 mm 0.00 in0.0 mm 0.04 in1.0 mm
12:05 PM 56.6°F13.7°C 44.9°F7.2°C 65% 8.3 mph SSW13.4 kmh SSW 13.4 mph21.6 kmh 29.95 in1014.2 mb 0.00 in0.0 mm 0.00 in0.0 mm 0.04 in1.0 mm
12:10 PM 56.6°F13.7°C 43.7°F6.5°C 62% 9.2 mph SW14.8 kmh SW 16.1 mph25.9 kmh 29.95 in1014.2 mb 0.00 in0.0 mm 0.00 in0.0 mm 0.04 in1.0 mm
12:15 PM 56.8°F13.8°C 44.3°F6.8°C 63% 8.9 mph SW14.3 kmh SW 16.1 mph25.9 kmh 29.95 in1014.2 mb 0.00 in0.0 mm 0.00 in0.0 mm 0.04 in1.0 mm
12:20 PM 56.8°F13.8°C 43.9°F6.6°C 62% 7.2 mph SSW11.6 kmh SSW 13.1 mph21.1 kmh 29.95 in1014.2 mb 0.00 in0.0 mm 0.00 in0.0 mm 0.04 in1.0 mm
12:25 PM 56.9°F13.8°C 44.5°F6.9°C 63% 8.2 mph S13.2 kmh S 13.7 mph22.0 kmh 29.95 in1014.2 mb 0.00 in0.0 mm 0.00 in0.0 mm 0.04 in1.0 mm
12:30 PM 57.8°F14.3°C 43.6°F6.4°C 59% 8.6 mph S13.8 kmh S 13.7 mph22.0 kmh 29.95 in1014.2 mb 0.00 in0.0 mm 0.00 in0.0 mm 0.04 in1.0 mm
12:35 PM 58.2°F14.6°C 43.5°F6.4°C 58% 11.0 mph SSW17.7 kmh SSW 17.3 mph27.8 kmh 29.95 in1014.2 mb 0.00 in0.0 mm 0.00 in0.0 mm 0.04 in1.0 mm
12:40 PM 58.2°F14.6°C 43.0°F6.1°C 57% 10.7 mph SSW17.2 kmh SSW 17.3 mph27.8 kmh 29.95 in1014.2 mb 0.00 in0.0 mm 0.00 in0.0 mm 0.04 in1.0 mm
12:45 PM 58.0°F14.4°C 42.9°F6.1°C 57% 8.4 mph SSW13.5 kmh SSW 13.4 mph21.6 kmh 29.95 in1014.2 mb 0.00 in0.0 mm 0.00 in0.0 mm 0.04 in1.0 mm
12:50 PM 58.0°F14.4°C 42.9°F6.1°C 57% 9.8 mph SSW15.8 kmh SSW 16.1 mph25.9 kmh 29.95 in1014.2 mb 0.00 in0.0 mm 0.00 in0.0 mm 0.04 in1.0 mm
12:55 PM 58.0°F14.4°C 41.4°F5.2°C 54% 12.1 mph SSW19.5 kmh SSW 20.8 mph33.5 kmh 29.95 in1014.2 mb 0.00 in0.0 mm 0.00 in0.0 mm 0.04 in1.0 mm
01:00 PM 58.4°F14.7°C 41.8°F5.4°C 54% 12.0 mph SW19.3 kmh SW 20.8 mph33.5 kmh 29.95 in1014.2 mb 0.00 in0.0 mm 0.00 in0.0 mm 0.04 in1.0 mm
01:05 PM 58.2°F14.6°C 41.1°F5.1°C 53% 11.2 mph SSW18.0 kmh SSW 17.3 mph27.8 kmh 29.95 in1014.2 mb 0.00 in0.0 mm 0.00 in0.0 mm 0.04 in1.0 mm
01:10 PM 58.0°F14.4°C 41.0°F5.0°C 53% 9.8 mph SSW15.8 kmh SSW 16.4 mph26.4 kmh 29.95 in1014.2 mb 0.00 in0.0 mm 0.00 in0.0 mm 0.04 in1.0 mm
01:15 PM 58.4°F14.7°C 41.3°F5.2°C 53% 8.7 mph SSW14.0 kmh SSW 14.6 mph23.5 kmh 29.95 in1014.2 mb 0.00 in0.0 mm 0.00 in0.0 mm 0.04 in1.0 mm
01:20 PM 58.2°F14.6°C 40.6°F4.8°C 52% 8.9 mph SSW14.3 kmh SSW 13.4 mph21.6 kmh 29.95 in1014.2 mb 0.00 in0.0 mm 0.00 in0.0 mm 0.04 in1.0 mm
01:25 PM 58.2°F14.6°C 40.6°F4.8°C 52% 8.5 mph SSW13.7 kmh SSW 11.9 mph19.2 kmh 29.95 in1014.2 mb 0.00 in0.0 mm 0.00 in0.0 mm 0.04 in1.0 mm
01:30 PM 58.2°F14.6°C 40.6°F4.8°C 52% 9.6 mph SSW15.4 kmh SSW 19.6 mph31.5 kmh 29.95 in1014.2 mb 0.00 in0.0 mm 0.00 in0.0 mm 0.04 in1.0 mm
01:35 PM 57.5°F14.2°C 40.5°F4.7°C 53% 10.6 mph S17.1 kmh S 19.6 mph31.5 kmh 29.95 in1014.2 mb 0.00 in0.0 mm 0.00 in0.0 mm 0.04 in1.0 mm
01:40 PM 57.5°F14.2°C 40.9°F4.9°C 54% 8.5 mph S13.7 kmh S 13.7 mph22.0 kmh 29.95 in1014.2 mb 0.00 in0.0 mm 0.00 in0.0 mm 0.04 in1.0 mm
01:45 PM 57.7°F14.3°C 41.1°F5.1°C 54% 7.4 mph SW11.9 kmh SW 10.4 mph16.7 kmh 29.95 in1014.2 mb 0.00 in0.0 mm 0.00 in0.0 mm 0.04 in1.0 mm
01:50 PM 57.7°F14.3°C 41.1°F5.1°C 54% 6.7 mph SW10.8 kmh SW 10.4 mph16.7 kmh 29.95 in1014.2 mb 0.00 in0.0 mm 0.00 in0.0 mm 0.04 in1.0 mm
01:55 PM 57.3°F14.1°C 40.3°F4.6°C 53% 10.0 mph SSW16.1 kmh SSW 16.7 mph26.9 kmh 29.95 in1014.2 mb 0.00 in0.0 mm 0.00 in0.0 mm 0.04 in1.0 mm
02:00 PM 57.3°F14.1°C 40.8°F4.9°C 54% 11.2 mph SSW18.0 kmh SSW 16.7 mph26.9 kmh 29.95 in1014.2 mb 0.00 in0.0 mm 0.00 in0.0 mm 0.04 in1.0 mm
02:05 PM 57.3°F14.1°C 40.8°F4.9°C 54% 9.0 mph SSW14.5 kmh SSW 13.4 mph21.6 kmh 29.95 in1014.2 mb 0.00 in0.0 mm 0.00 in0.0 mm 0.04 in1.0 mm
02:10 PM 57.1°F13.9°C 40.6°F4.8°C 54% 10.2 mph S16.4 kmh S 13.7 mph22.0 kmh 29.95 in1014.2 mb 0.00 in0.0 mm 0.00 in0.0 mm 0.04 in1.0 mm
02:15 PM 57.3°F14.1°C 41.3°F5.2°C 55% 11.9 mph SSW19.2 kmh SSW 15.8 mph25.4 kmh 29.95 in1014.2 mb 0.00 in0.0 mm 0.00 in0.0 mm 0.04 in1.0 mm
02:20 PM 57.7°F14.3°C 41.1°F5.1°C 54% 11.5 mph SSW18.5 kmh SSW 23.5 mph37.8 kmh 29.95 in1014.2 mb 0.00 in0.0 mm 0.00 in0.0 mm 0.04 in1.0 mm
02:25 PM 57.8°F14.3°C 40.8°F4.9°C 53% 12.7 mph S20.4 kmh S 23.5 mph37.8 kmh 29.95 in1014.2 mb 0.00 in0.0 mm 0.00 in0.0 mm 0.04 in1.0 mm
02:30 PM 57.8°F14.3°C 40.3°F4.6°C 52% 11.0 mph SSW17.7 kmh SSW 23.5 mph37.8 kmh 29.95 in1014.2 mb 0.00 in0.0 mm 0.00 in0.0 mm 0.04 in1.0 mm
02:35 PM 57.8°F14.3°C 40.3°F4.6°C 52% 8.5 mph SSW13.7 kmh SSW 13.4 mph21.6 kmh 29.95 in1014.2 mb 0.00 in0.0 mm 0.00 in0.0 mm 0.04 in1.0 mm
02:40 PM 57.5°F14.2°C 40.5°F4.7°C 53% 7.5 mph SSW12.1 kmh SSW 13.4 mph21.6 kmh 29.95 in1014.2 mb 0.00 in0.0 mm 0.00 in0.0 mm 0.04 in1.0 mm
02:45 PM 57.7°F14.3°C 40.6°F4.8°C 53% 6.2 mph SSW10.0 kmh SSW 8.6 mph13.8 kmh 29.95 in1014.2 mb 0.00 in0.0 mm 0.00 in0.0 mm 0.04 in1.0 mm
02:50 PM 57.3°F14.1°C 40.3°F4.6°C 53% 6.7 mph SW10.8 kmh SW 13.1 mph21.1 kmh 29.95 in1014.2 mb 0.00 in0.0 mm 0.00 in0.0 mm 0.04 in1.0 mm
02:55 PM 57.1°F13.9°C 40.6°F4.8°C 54% 10.2 mph SSW16.4 kmh SSW 14.0 mph22.5 kmh 29.95 in1014.2 mb 0.00 in0.0 mm 0.00 in0.0 mm 0.04 in1.0 mm
03:00 PM 56.9°F13.8°C 40.4°F4.7°C 54% 11.4 mph S18.3 kmh S 14.6 mph23.5 kmh 29.95 in1014.2 mb 0.00 in0.0 mm 0.00 in0.0 mm 0.04 in1.0 mm
03:05 PM 56.9°F13.8°C 40.9°F4.9°C 55% 11.2 mph SSW18.0 kmh SSW 14.6 mph23.5 kmh 29.95 in1014.2 mb 0.00 in0.0 mm 0.00 in0.0 mm 0.04 in1.0 mm
03:10 PM 57.3°F14.1°C 40.3°F4.6°C 53% 10.4 mph SSW16.7 kmh SSW 13.7 mph22.0 kmh 29.95 in1014.2 mb 0.00 in0.0 mm 0.00 in0.0 mm 0.04 in1.0 mm
03:15 PM 57.3°F14.1°C 40.3°F4.6°C 53% 9.0 mph SSW14.5 kmh SSW 13.1 mph21.1 kmh 29.95 in1014.2 mb 0.00 in0.0 mm 0.00 in0.0 mm 0.04 in1.0 mm
03:20 PM 57.3°F14.1°C 40.3°F4.6°C 53% 8.6 mph SSW13.8 kmh SSW 12.8 mph20.6 kmh 29.95 in1014.2 mb 0.00 in0.0 mm 0.00 in0.0 mm 0.04 in1.0 mm
03:25 PM 56.9°F13.8°C 40.0°F4.4°C 53% 9.0 mph SSW14.5 kmh SSW 12.8 mph20.6 kmh 29.95 in1014.2 mb 0.00 in0.0 mm 0.00 in0.0 mm 0.04 in1.0 mm
03:30 PM 56.9°F13.8°C 40.0°F4.4°C 53% 9.4 mph SW15.1 kmh SW 19.6 mph31.5 kmh 29.95 in1014.2 mb 0.00 in0.0 mm 0.00 in0.0 mm 0.04 in1.0 mm
03:35 PM 56.8°F13.8°C 39.3°F4.1°C 52% 10.5 mph SSW16.9 kmh SSW 19.6 mph31.5 kmh 29.95 in1014.2 mb 0.00 in0.0 mm 0.00 in0.0 mm 0.04 in1.0 mm
03:40 PM 56.2°F13.4°C 38.8°F3.8°C 52% 12.8 mph S20.6 kmh S 19.3 mph31.1 kmh 29.95 in1014.2 mb 0.00 in0.0 mm 0.00 in0.0 mm 0.04 in1.0 mm
03:45 PM 56.0°F13.3°C 38.6°F3.7°C 52% 12.5 mph SSW20.1 kmh SSW 19.3 mph31.1 kmh 29.95 in1014.2 mb 0.00 in0.0 mm 0.00 in0.0 mm 0.04 in1.0 mm
03:50 PM 56.0°F13.3°C 38.1°F3.4°C 51% 9.7 mph SSW15.6 kmh SSW 19.3 mph31.1 kmh 29.95 in1014.2 mb 0.00 in0.0 mm 0.00 in0.0 mm 0.04 in1.0 mm
03:55 PM 55.8°F13.2°C 38.5°F3.6°C 52% 10.8 mph SW17.4 kmh SW 16.4 mph26.4 kmh 29.95 in1014.2 mb 0.00 in0.0 mm 0.00 in0.0 mm 0.04 in1.0 mm
04:00 PM 55.8°F13.2°C 38.5°F3.6°C 52% 11.8 mph SW19.0 kmh SW 17.3 mph27.8 kmh 29.95 in1014.2 mb 0.00 in0.0 mm 0.00 in0.0 mm 0.04 in1.0 mm
04:05 PM 56.0°F13.3°C 38.6°F3.7°C 52% 10.2 mph SW16.4 kmh SW 17.3 mph27.8 kmh 29.95 in1014.2 mb 0.00 in0.0 mm 0.00 in0.0 mm 0.04 in1.0 mm
04:10 PM 56.2°F13.4°C 38.8°F3.8°C 52% 10.6 mph SSW17.1 kmh SSW 17.3 mph27.8 kmh 29.95 in1014.2 mb 0.00 in0.0 mm 0.00 in0.0 mm 0.04 in1.0 mm
04:15 PM 56.2°F13.4°C 38.8°F3.8°C 52% 11.5 mph SSW18.5 kmh SSW 20.2 mph32.5 kmh 29.95 in1014.2 mb 0.00 in0.0 mm 0.00 in0.0 mm 0.04 in1.0 mm
04:20 PM 56.2°F13.4°C 38.8°F3.8°C 52% 12.3 mph SSW19.8 kmh SSW 20.2 mph32.5 kmh 29.95 in1014.2 mb 0.00 in0.0 mm 0.00 in0.0 mm 0.04 in1.0 mm
04:25 PM 56.2°F13.4°C 38.8°F3.8°C 52% 12.4 mph S20.0 kmh S 17.3 mph27.8 kmh 29.95 in1014.2 mb 0.00 in0.0 mm 0.00 in0.0 mm 0.04 in1.0 mm
04:30 PM 56.4°F13.6°C 39.5°F4.2°C 53% 9.7 mph S15.6 kmh S 17.3 mph27.8 kmh 29.95 in1014.2 mb 0.00 in0.0 mm 0.00 in0.0 mm 0.04 in1.0 mm
04:35 PM 56.4°F13.6°C 39.5°F4.2°C 53% 9.0 mph S14.5 kmh S 17.0 mph27.4 kmh 29.95 in1014.2 mb 0.00 in0.0 mm 0.00 in0.0 mm 0.04 in1.0 mm
04:40 PM 56.0°F13.3°C 39.1°F3.9°C 53% 9.8 mph S15.8 kmh S 17.0 mph27.4 kmh 29.95 in1014.2 mb 0.00 in0.0 mm 0.00 in0.0 mm 0.04 in1.0 mm
04:45 PM 55.8°F13.2°C 39.0°F3.9°C 53% 9.7 mph SSW15.6 kmh SSW 17.0 mph27.4 kmh 29.95 in1014.2 mb 0.00 in0.0 mm 0.00 in0.0 mm 0.04 in1.0 mm
04:50 PM 55.7°F13.2°C 38.8°F3.8°C 53% 7.8 mph SW12.6 kmh SW 10.4 mph16.7 kmh 29.95 in1014.2 mb 0.00 in0.0 mm 0.00 in0.0 mm 0.04 in1.0 mm
04:55 PM 55.7°F13.2°C 38.8°F3.8°C 53% 7.5 mph SSW12.1 kmh SSW 10.1 mph16.3 kmh 29.95 in1014.2 mb 0.00 in0.0 mm 0.00 in0.0 mm 0.04 in1.0 mm
05:00 PM 55.5°F13.1°C 38.6°F3.7°C 53% 9.3 mph SSW15.0 kmh SSW 16.7 mph26.9 kmh 29.95 in1014.2 mb 0.00 in0.0 mm 0.00 in0.0 mm 0.04 in1.0 mm
05:05 PM 55.3°F12.9°C 38.5°F3.6°C 53% 11.5 mph SW18.5 kmh SW 16.7 mph26.9 kmh 29.95 in1014.2 mb 0.00 in0.0 mm 0.00 in0.0 mm 0.04 in1.0 mm
05:10 PM 55.1°F12.8°C 38.3°F3.5°C 53% 10.3 mph SW16.6 kmh SW 14.6 mph23.5 kmh 29.95 in1014.2 mb 0.00 in0.0 mm 0.00 in0.0 mm 0.04 in1.0 mm
05:15 PM 55.1°F12.8°C 38.8°F3.8°C 54% 7.8 mph SSW12.6 kmh SSW 14.0 mph22.5 kmh 29.95 in1014.2 mb 0.00 in0.0 mm 0.00 in0.0 mm 0.04 in1.0 mm
05:20 PM 55.0°F12.8°C 38.6°F3.7°C 54% 6.7 mph SW10.8 kmh SW 8.3 mph13.4 kmh 29.95 in1014.2 mb 0.00 in0.0 mm 0.00 in0.0 mm 0.04 in1.0 mm
05:25 PM 54.6°F12.6°C 38.7°F3.7°C 55% 8.8 mph SW14.2 kmh SW 16.7 mph26.9 kmh 29.95 in1014.2 mb 0.00 in0.0 mm 0.00 in0.0 mm 0.04 in1.0 mm
05:30 PM 54.4°F12.4°C 38.6°F3.7°C 55% 9.8 mph SSW15.8 kmh SSW 16.7 mph26.9 kmh 29.95 in1014.2 mb 0.00 in0.0 mm 0.00 in0.0 mm 0.04 in1.0 mm
05:35 PM 54.0°F12.2°C 38.7°F3.7°C 56% 10.3 mph S16.6 kmh S 16.4 mph26.4 kmh 29.95 in1014.2 mb 0.00 in0.0 mm 0.00 in0.0 mm 0.04 in1.0 mm
05:40 PM 53.9°F12.2°C 38.5°F3.6°C 56% 10.9 mph SSW17.5 kmh SSW 16.4 mph26.4 kmh 29.95 in1014.2 mb 0.00 in0.0 mm 0.00 in0.0 mm 0.04 in1.0 mm
05:45 PM 53.7°F12.1°C 38.4°F3.6°C 56% 9.5 mph SSW15.3 kmh SSW 14.6 mph23.5 kmh 29.95 in1014.2 mb 0.00 in0.0 mm 0.00 in0.0 mm 0.04 in1.0 mm
05:50 PM 53.5°F11.9°C 38.6°F3.7°C 57% 8.7 mph SW14.0 kmh SW 11.6 mph18.7 kmh 29.95 in1014.2 mb 0.00 in0.0 mm 0.00 in0.0 mm 0.04 in1.0 mm
05:55 PM 53.3°F11.8°C 38.5°F3.6°C 57% 9.4 mph SW15.1 kmh SW 11.6 mph18.7 kmh 29.95 in1014.2 mb 0.00 in0.0 mm 0.00 in0.0 mm 0.04 in1.0 mm
06:00 PM 53.2°F11.8°C 38.7°F3.7°C 58% 10.1 mph SSW16.3 kmh SSW 12.8 mph20.6 kmh 29.95 in1014.2 mb 0.00 in0.0 mm 0.00 in0.0 mm 0.04 in1.0 mm
06:05 PM 53.0°F11.7°C 38.6°F3.7°C 58% 10.8 mph S17.4 kmh S 14.9 mph24.0 kmh 29.95 in1014.2 mb 0.00 in0.0 mm 0.00 in0.0 mm 0.04 in1.0 mm
06:10 PM 53.0°F11.7°C 38.6°F3.7°C 58% 10.8 mph S17.4 kmh S 14.9 mph24.0 kmh 29.95 in1014.2 mb 0.00 in0.0 mm 0.00 in0.0 mm 0.04 in1.0 mm
06:15 PM 52.8°F11.6°C 38.8°F3.8°C 59% 10.4 mph SSW16.7 kmh SSW 14.3 mph23.0 kmh 29.95 in1014.2 mb 0.00 in0.0 mm 0.00 in0.0 mm 0.04 in1.0 mm
06:20 PM 52.8°F11.6°C 38.8°F3.8°C 59% 9.8 mph SW15.8 kmh SW 13.1 mph21.1 kmh 29.95 in1014.2 mb 0.00 in0.0 mm 0.00 in0.0 mm 0.04 in1.0 mm
06:25 PM 52.6°F11.4°C 38.7°F3.7°C 59% 9.5 mph SW15.3 kmh SW 14.0 mph22.5 kmh 29.95 in1014.2 mb 0.00 in0.0 mm 0.00 in0.0 mm 0.04 in1.0 mm
06:30 PM 52.6°F11.4°C 38.7°F3.7°C 59% 8.8 mph S14.2 kmh S 14.0 mph22.5 kmh 29.95 in1014.2 mb 0.00 in0.0 mm 0.00 in0.0 mm 0.04 in1.0 mm
06:35 PM 52.4°F11.3°C 38.9°F3.8°C 60% 7.8 mph S12.6 kmh S 11.6 mph18.7 kmh 29.95 in1014.2 mb 0.00 in0.0 mm 0.00 in0.0 mm 0.04 in1.0 mm
06:40 PM 52.4°F11.3°C 38.9°F3.8°C 60% 8.6 mph S13.8 kmh S 11.6 mph18.7 kmh 29.95 in1014.2 mb 0.00 in0.0 mm 0.00 in0.0 mm 0.04 in1.0 mm
06:45 PM 52.3°F11.3°C 38.8°F3.8°C 60% 8.0 mph S12.9 kmh S 11.3 mph18.2 kmh 29.95 in1014.2 mb 0.00 in0.0 mm 0.00 in0.0 mm 0.04 in1.0 mm
06:50 PM 52.3°F11.3°C 39.2°F4.0°C 61% 8.1 mph SW13.0 kmh SW 10.4 mph16.7 kmh 29.95 in1014.2 mb 0.00 in0.0 mm 0.00 in0.0 mm 0.04 in1.0 mm
06:55 PM 52.1°F11.2°C 39.0°F3.9°C 61% 8.5 mph SW13.7 kmh SW 10.4 mph16.7 kmh 29.95 in1014.2 mb 0.00 in0.0 mm 0.00 in0.0 mm 0.04 in1.0 mm
07:00 PM 52.1°F11.2°C 39.0°F3.9°C 61% 10.3 mph SSW16.6 kmh SSW 16.4 mph26.4 kmh 29.95 in1014.2 mb 0.00 in0.0 mm 0.00 in0.0 mm 0.04 in1.0 mm
07:05 PM 51.9°F11.1°C 39.3°F4.1°C 62% 10.0 mph SSW16.1 kmh SSW 16.4 mph26.4 kmh 29.95 in1014.2 mb 0.00 in0.0 mm 0.00 in0.0 mm 0.04 in1.0 mm
07:10 PM 51.9°F11.1°C 39.3°F4.1°C 62% 7.5 mph SSW12.1 kmh SSW 11.6 mph18.7 kmh 29.95 in1014.2 mb 0.00 in0.0 mm 0.00 in0.0 mm 0.04 in1.0 mm
07:15 PM 51.7°F10.9°C 39.1°F3.9°C 62% 7.5 mph SSW12.1 kmh SSW 10.7 mph17.2 kmh 29.95 in1014.2 mb 0.00 in0.0 mm 0.00 in0.0 mm 0.04 in1.0 mm
07:20 PM 51.7°F10.9°C 39.1°F3.9°C 62% 8.4 mph S13.5 kmh S 11.6 mph18.7 kmh 29.95 in1014.2 mb 0.00 in0.0 mm 0.00 in0.0 mm 0.04 in1.0 mm
07:25 PM 51.7°F10.9°C 39.1°F3.9°C 62% 9.5 mph S15.3 kmh S 14.3 mph23.0 kmh 29.95 in1014.2 mb 0.00 in0.0 mm 0.00 in0.0 mm 0.04 in1.0 mm
07:30 PM 51.7°F10.9°C 39.1°F3.9°C 62% 10.6 mph S17.1 kmh S 14.3 mph23.0 kmh 29.95 in1014.2 mb 0.00 in0.0 mm 0.00 in0.0 mm 0.04 in1.0 mm
07:35 PM 51.7°F10.9°C 39.1°F3.9°C 62% 9.6 mph S15.4 kmh S 14.3 mph23.0 kmh 29.95 in1014.2 mb 0.00 in0.0 mm 0.00 in0.0 mm 0.04 in1.0 mm
07:40 PM 51.5°F10.8°C 39.3°F4.1°C 63% 7.9 mph SSW12.7 kmh SSW 13.1 mph21.1 kmh 29.95 in1014.2 mb 0.00 in0.0 mm 0.00 in0.0 mm 0.04 in1.0 mm
07:45 PM 51.3°F10.7°C 39.2°F4.0°C 63% 9.2 mph SSW14.8 kmh SSW 13.1 mph21.1 kmh 29.95 in1014.2 mb 0.00 in0.0 mm 0.00 in0.0 mm 0.04 in1.0 mm
07:50 PM 51.3°F10.7°C 39.2°F4.0°C 63% 9.1 mph SW14.6 kmh SW 10.7 mph17.2 kmh 29.95 in1014.2 mb 0.00 in0.0 mm 0.00 in0.0 mm 0.04 in1.0 mm
07:55 PM 51.3°F10.7°C 39.2°F4.0°C 63% 9.2 mph SSW14.8 kmh SSW 14.0 mph22.5 kmh 29.95 in1014.2 mb 0.00 in0.0 mm 0.00 in0.0 mm 0.04 in1.0 mm
08:00 PM 51.3°F10.7°C 39.2°F4.0°C 63% 10.0 mph SSW16.1 kmh SSW 14.0 mph22.5 kmh 29.95 in1014.2 mb 0.00 in0.0 mm 0.00 in0.0 mm 0.04 in1.0 mm
08:05 PM 51.2°F10.7°C 39.4°F4.1°C 64% 11.1 mph SSW17.9 kmh SSW 14.6 mph23.5 kmh 29.95 in1014.2 mb 0.00 in0.0 mm 0.00 in0.0 mm 0.04 in1.0 mm
08:10 PM 51.2°F10.7°C 39.4°F4.1°C 64% 9.9 mph SSW15.9 kmh SSW 14.6 mph23.5 kmh 29.95 in1014.2 mb 0.00 in0.0 mm 0.00 in0.0 mm 0.04 in1.0 mm
08:15 PM 51.2°F10.7°C 39.4°F4.1°C 64% 8.6 mph SSW13.8 kmh SSW 13.7 mph22.0 kmh 29.95 in1014.2 mb 0.00 in0.0 mm 0.00 in0.0 mm 0.04 in1.0 mm
08:20 PM 51.2°F10.7°C 39.4°F4.1°C 64% 9.5 mph SSW15.3 kmh SSW 13.1 mph21.1 kmh 29.95 in1014.2 mb 0.00 in0.0 mm 0.00 in0.0 mm 0.04 in1.0 mm
08:25 PM 51.0°F10.6°C 39.2°F4.0°C 64% 9.4 mph SSW15.1 kmh SSW 13.1 mph21.1 kmh 29.95 in1014.2 mb 0.00 in0.0 mm 0.00 in0.0 mm 0.04 in1.0 mm
08:30 PM 51.0°F10.6°C 39.2°F4.0°C 64% 9.3 mph SSW15.0 kmh SSW 13.4 mph21.6 kmh 29.95 in1014.2 mb 0.00 in0.0 mm 0.00 in0.0 mm 0.04 in1.0 mm
08:35 PM 51.0°F10.6°C 39.2°F4.0°C 64% 9.9 mph SSW15.9 kmh SSW 14.3 mph23.0 kmh 29.95 in1014.2 mb 0.00 in0.0 mm 0.00 in0.0 mm 0.04 in1.0 mm
08:40 PM 51.0°F10.6°C 39.2°F4.0°C 64% 9.2 mph SW14.8 kmh SW 14.3 mph23.0 kmh 29.95 in1014.2 mb 0.00 in0.0 mm 0.00 in0.0 mm 0.04 in1.0 mm
08:45 PM 51.0°F10.6°C 39.2°F4.0°C 64% 9.7 mph SW15.6 kmh SW 13.7 mph22.0 kmh 29.95 in1014.2 mb 0.00 in0.0 mm 0.00 in0.0 mm 0.04 in1.0 mm
08:50 PM 51.0°F10.6°C 39.2°F4.0°C 64% 12.4 mph SSW20.0 kmh SSW 19.3 mph31.1 kmh 29.95 in1014.2 mb 0.00 in0.0 mm 0.00 in0.0 mm 0.04 in1.0 mm
08:55 PM 51.0°F10.6°C 39.2°F4.0°C 64% 12.4 mph SSW20.0 kmh SSW 19.3 mph31.1 kmh 29.95 in1014.2 mb 0.00 in0.0 mm 0.00 in0.0 mm 0.04 in1.0 mm
09:00 PM 51.0°F10.6°C 39.2°F4.0°C 64% 11.8 mph SW19.0 kmh SW 17.9 mph28.8 kmh 29.95 in1014.2 mb 0.00 in0.0 mm 0.00 in0.0 mm 0.04 in1.0 mm
09:05 PM 51.0°F10.6°C 39.6°F4.2°C 65% 10.8 mph SSW17.4 kmh SSW 17.9 mph28.8 kmh 29.95 in1014.2 mb 0.00 in0.0 mm 0.00 in0.0 mm 0.04 in1.0 mm
09:10 PM 51.0°F10.6°C 39.6°F4.2°C 65% 9.6 mph SSW15.4 kmh SSW 17.9 mph28.8 kmh 29.95 in1014.2 mb 0.00 in0.0 mm 0.00 in0.0 mm 0.04 in1.0 mm
09:15 PM 51.0°F10.6°C 39.6°F4.2°C 65% 7.8 mph SSW12.6 kmh SSW 11.6 mph18.7 kmh 29.95 in1014.2 mb 0.00 in0.0 mm 0.00 in0.0 mm 0.04 in1.0 mm
09:20 PM 51.0°F10.6°C 39.6°F4.2°C 65% 7.4 mph SW11.9 kmh SW 11.6 mph18.7 kmh 29.95 in1014.2 mb 0.00 in0.0 mm 0.00 in0.0 mm 0.04 in1.0 mm
09:25 PM 51.0°F10.6°C 39.6°F4.2°C 65% 8.7 mph SW14.0 kmh SW 13.4 mph21.6 kmh 29.95 in1014.2 mb 0.00 in0.0 mm 0.00 in0.0 mm 0.04 in1.0 mm
09:30 PM 51.0°F10.6°C 39.6°F4.2°C 65% 8.7 mph SSW14.0 kmh SSW 13.4 mph21.6 kmh 29.95 in1014.2 mb 0.00 in0.0 mm 0.00 in0.0 mm 0.04 in1.0 mm
09:35 PM 51.0°F10.6°C 39.6°F4.2°C 65% 7.8 mph S12.6 kmh S 11.6 mph18.7 kmh 29.95 in1014.2 mb 0.00 in0.0 mm 0.00 in0.0 mm 0.04 in1.0 mm
09:40 PM 51.0°F10.6°C 39.6°F4.2°C 65% 7.6 mph SSW12.2 kmh SSW 11.3 mph18.2 kmh 29.95 in1014.2 mb 0.00 in0.0 mm 0.00 in0.0 mm 0.04 in1.0 mm
09:45 PM 51.0°F10.6°C 39.6°F4.2°C 65% 7.7 mph SSW12.4 kmh SSW 11.6 mph18.7 kmh 29.95 in1014.2 mb 0.00 in0.0 mm 0.00 in0.0 mm 0.04 in1.0 mm
09:50 PM 51.0°F10.6°C 40.0°F4.4°C 66% 7.9 mph SSW12.7 kmh SSW 11.6 mph18.7 kmh 29.95 in1014.2 mb 0.00 in0.0 mm 0.00 in0.0 mm 0.04 in1.0 mm
09:55 PM 50.8°F10.4°C 39.9°F4.4°C 66% 7.8 mph SSW12.6 kmh SSW 11.3 mph18.2 kmh 29.95 in1014.2 mb 0.00 in0.0 mm 0.00 in0.0 mm 0.04 in1.0 mm
10:00 PM 50.8°F10.4°C 39.9°F4.4°C 66% 8.4 mph S13.5 kmh S 16.1 mph25.9 kmh 29.95 in1014.2 mb 0.00 in0.0 mm 0.00 in0.0 mm 0.04 in1.0 mm
10:05 PM 50.8°F10.4°C 39.9°F4.4°C 66% 9.0 mph SSW14.5 kmh SSW 16.1 mph25.9 kmh 29.95 in1014.2 mb 0.00 in0.0 mm 0.00 in0.0 mm 0.04 in1.0 mm
10:10 PM 50.8°F10.4°C 39.9°F4.4°C 66% 8.4 mph S13.5 kmh S 10.7 mph17.2 kmh 29.95 in1014.2 mb 0.00 in0.0 mm 0.00 in0.0 mm 0.04 in1.0 mm
10:15 PM 50.8°F10.4°C 39.9°F4.4°C 66% 8.4 mph S13.5 kmh S 13.4 mph21.6 kmh 29.95 in1014.2 mb 0.00 in0.0 mm 0.00 in0.0 mm 0.04 in1.0 mm
10:20 PM 50.8°F10.4°C 39.9°F4.4°C 66% 7.7 mph SSW12.4 kmh SSW 13.4 mph21.6 kmh 29.95 in1014.2 mb 0.00 in0.0 mm 0.00 in0.0 mm 0.04 in1.0 mm
10:25 PM 50.8°F10.4°C 39.9°F4.4°C 66% 8.9 mph SSW14.3 kmh SSW 12.8 mph20.6 kmh 29.95 in1014.2 mb 0.00 in0.0 mm 0.00 in0.0 mm 0.04 in1.0 mm
10:30 PM 50.8°F10.4°C 39.9°F4.4°C 66% 10.2 mph S16.4 kmh S 13.4 mph21.6 kmh 29.95 in1014.2 mb 0.00 in0.0 mm 0.00 in0.0 mm 0.04 in1.0 mm
10:35 PM 50.8°F10.4°C 39.9°F4.4°C 66% 9.5 mph S15.3 kmh S 13.4 mph21.6 kmh 29.95 in1014.2 mb 0.00 in0.0 mm 0.00 in0.0 mm 0.04 in1.0 mm
10:40 PM 50.8°F10.4°C 39.9°F4.4°C 66% 9.6 mph SSW15.4 kmh SSW 13.1 mph21.1 kmh 29.95 in1014.2 mb 0.00 in0.0 mm 0.00 in0.0 mm 0.04 in1.0 mm
10:45 PM 50.8°F10.4°C 39.9°F4.4°C 66% 10.5 mph SSW16.9 kmh SSW 13.4 mph21.6 kmh 29.95 in1014.2 mb 0.00 in0.0 mm 0.00 in0.0 mm 0.04 in1.0 mm
10:50 PM 50.8°F10.4°C 39.9°F4.4°C 66% 11.3 mph SSW18.2 kmh SSW 16.7 mph26.9 kmh 29.95 in1014.2 mb 0.00 in0.0 mm 0.00 in0.0 mm 0.04 in1.0 mm
10:55 PM 51.0°F10.6°C 40.0°F4.4°C 66% 10.3 mph SSW16.6 kmh SSW 16.7 mph26.9 kmh 29.95 in1014.2 mb 0.00 in0.0 mm 0.00 in0.0 mm 0.04 in1.0 mm
11:00 PM 51.0°F10.6°C 40.0°F4.4°C 66% 9.6 mph SSW15.4 kmh SSW 14.3 mph23.0 kmh 29.95 in1014.2 mb 0.00 in0.0 mm 0.00 in0.0 mm 0.04 in1.0 mm
11:05 PM 51.0°F10.6°C 40.0°F4.4°C 66% 10.6 mph S17.1 kmh S 14.3 mph23.0 kmh 29.95 in1014.2 mb 0.00 in0.0 mm 0.00 in0.0 mm 0.04 in1.0 mm
11:10 PM 50.8°F10.4°C 40.2°F4.6°C 67% 8.8 mph S14.2 kmh S 13.7 mph22.0 kmh 29.95 in1014.2 mb 0.00 in0.0 mm 0.00 in0.0 mm 0.04 in1.0 mm
11:15 PM 50.8°F10.4°C 40.2°F4.6°C 67% 7.0 mph S11.3 kmh S 10.7 mph17.2 kmh 29.95 in1014.2 mb 0.00 in0.0 mm 0.00 in0.0 mm 0.04 in1.0 mm
11:20 PM 50.8°F10.4°C 40.2°F4.6°C 67% 7.4 mph SSW11.9 kmh SSW 14.0 mph22.5 kmh 29.95 in1014.2 mb 0.00 in0.0 mm 0.00 in0.0 mm 0.04 in1.0 mm
11:25 PM 50.8°F10.4°C 40.2°F4.6°C 67% 9.0 mph SSW14.5 kmh SSW 14.0 mph22.5 kmh 29.95 in1014.2 mb 0.00 in0.0 mm 0.00 in0.0 mm 0.04 in1.0 mm
11:30 PM 50.8°F10.4°C 40.2°F4.6°C 67% 8.7 mph SSW14.0 kmh SSW 13.7 mph22.0 kmh 29.95 in1014.2 mb 0.00 in0.0 mm 0.00 in0.0 mm 0.04 in1.0 mm
11:35 PM 50.8°F10.4°C 40.2°F4.6°C 67% 7.9 mph SSW12.7 kmh SSW 11.3 mph18.2 kmh 29.95 in1014.2 mb 0.00 in0.0 mm 0.00 in0.0 mm 0.04 in1.0 mm
11:40 PM 51.0°F10.6°C 40.4°F4.7°C 67% 9.5 mph SSW15.3 kmh SSW 13.7 mph22.0 kmh 29.95 in1014.2 mb 0.00 in0.0 mm 0.00 in0.0 mm 0.04 in1.0 mm
11:45 PM 51.0°F10.6°C 40.4°F4.7°C 67% 8.4 mph S13.5 kmh S 13.7 mph22.0 kmh 29.95 in1014.2 mb 0.00 in0.0 mm 0.00 in0.0 mm 0.04 in1.0 mm
11:50 PM 51.0°F10.6°C 40.4°F4.7°C 67% 6.5 mph SSW10.5 kmh SSW 8.3 mph13.4 kmh 29.95 in1014.2 mb 0.00 in0.0 mm 0.00 in0.0 mm 0.04 in1.0 mm
11:55 PM 51.0°F10.6°C 40.4°F4.7°C 67% 9.4 mph S15.1 kmh S 24.7 mph39.8 kmh 29.95 in1014.2 mb 0.00 in0.0 mm 0.00 in0.0 mm 0.04 in1.0 mm